Rechercher aéroport 
image banner adimage banner adimage banner ad
image banner ad

42L - Naa Long Beach Port Helistop

Situé à Long Beach, United States

ICAO - 42L, IATA -

Données fournies par Airmate  

Information générale

Coordonnées: N33°45'53" W118°11'58"
Élévation : 15 feet MSL.
Variation magnétique : 14° East
Voir autres Aéroports à California

Données opérationnelles

Special qualification required
Heure actuelle UTC:
Heure actuelle locale:
METAR: KLGB 251653Z VRB03KT 10SM OVC014 22/17 A2999 RMK AO2 SLP155 T02220167
TAF: KLGB 251619Z 2516/2612 VRB05KT P6SM OVC014 FM251800 19006KT P6SM BKN120 FM252300 29008KT P6SM BKN120 FM260400 VRB03KT P6SM BKN120 FM260900 VRB03KT P6SM VCSH OVC100
Voir NOTAMs / SUP AIP / TFR affectant cet aéroport [VIEW]
Fréquences de communication: [VIEW]

Pistes:

Coordonnées de l'aéroport

Adresse: Long Beach United States

Vue satellite de 42L